Time;durP1;ratioP1;P1;durP2;ratioP2;P2;SDS_P1;SDS_P2;PMS_P1;PMS_P2;Temp;Humidity;BMP_temperature;BMP_pressure;BME280_temperature;BME280_humidity;BME280_pressure;Samples;Min_cycle;Max_cycle;Signal;HPM_P1;HPM_P2
2020/12/12 00:01:47;;;;;;;18.33;9.30;;;;;;;7.89;56.33;99462.00;5066538;28;20064;-70
2020/12/12 00:04:12;;;;;;;23.63;10.02;;;;;;;7.87;56.15;99453.47;5068092;28;20375;-71
2020/12/12 00:06:38;;;;;;;19.83;9.13;;;;;;;7.94;55.84;99459.31;5068529;28;20040;-70
2020/12/12 00:09:03;;;;;;;28.85;9.57;;;;;;;7.67;56.70;99455.66;5070088;28;20546;-70
2020/12/12 00:11:29;;;;;;;19.73;9.00;;;;;;;7.91;55.99;99464.56;5069443;28;20103;-70
2020/12/12 00:13:54;;;;;;;26.20;11.75;;;;;;;7.80;56.21;99461.38;5070341;28;20032;-69
2020/12/12 00:16:20;;;;;;;25.92;9.50;;;;;;;7.88;56.06;99464.59;5068730;28;20035;-70
2020/12/12 00:18:45;;;;;;;24.70;9.35;;;;;;;7.95;55.71;99461.03;5062762;28;20091;-69
2020/12/12 00:21:12;;;;;;;22.23;9.48;;;;;;;7.61;56.54;99466.94;5085748;28;20055;-69
2020/12/12 00:23:38;;;;;;;22.42;9.63;;;;;;;7.63;56.38;99462.56;5069105;28;20537;-69
2020/12/12 00:26:03;;;;;;;21.42;9.40;;;;;;;7.64;56.25;99468.56;5064587;28;20123;-70
2020/12/12 00:28:31;;;;;;;24.48;10.15;;;;;;;7.55;56.84;99472.19;5073556;28;20362;-70
2020/12/12 00:30:57;;;;;;;24.58;10.63;;;;;;;7.73;55.99;99470.09;5068728;28;20508;-70
2020/12/12 00:33:23;;;;;;;26.33;11.00;;;;;;;7.78;55.83;99474.25;5083447;28;20029;-69
2020/12/12 00:35:49;;;;;;;24.80;9.88;;;;;;;8.09;55.02;99471.84;5067900;28;20025;-70
2020/12/12 00:38:14;;;;;;;22.17;9.82;;;;;;;7.80;55.68;99464.78;5071061;28;20104;-70
2020/12/12 00:40:40;;;;;;;20.17;10.15;;;;;;;7.72;55.83;99465.81;5069419;28;20047;-70
2020/12/12 00:43:05;;;;;;;25.25;9.75;;;;;;;7.70;55.72;99455.56;5065328;28;20039;-70
2020/12/12 00:45:31;;;;;;;22.02;10.48;;;;;;;7.82;55.39;99467.34;5067537;28;20040;-70
2020/12/12 00:47:56;;;;;;;22.58;9.77;;;;;;;7.38;56.48;99458.84;5083518;28;20062;-70
2020/12/12 00:50:23;;;;;;;20.33;10.55;;;;;;;7.81;55.57;99458.75;5070038;28;20137;-69
2020/12/12 00:52:50;;;;;;;30.00;11.35;;;;;;;7.42;56.63;99466.44;5067012;28;20024;-70
2020/12/12 00:55:16;;;;;;;24.25;10.23;;;;;;;7.65;55.79;99463.38;5085226;28;20029;-69
2020/12/12 00:57:41;;;;;;;22.63;9.82;;;;;;;7.71;55.62;99466.72;5067037;28;20543;-70
2020/12/12 01:00:07;;;;;;;25.27;9.05;;;;;;;7.66;55.79;99465.09;5069895;28;20404;-69
2020/12/12 01:02:32;;;;;;;24.15;10.23;;;;;;;7.40;56.48;99472.50;5067178;28;20051;-70
2020/12/12 01:05:00;;;;;;;27.40;11.23;;;;;;;7.57;56.02;99469.56;5069204;28;20025;-71
2020/12/12 01:07:26;;;;;;;24.15;10.20;;;;;;;7.56;56.21;99473.88;5050517;28;20119;-71
2020/12/12 01:09:52;;;;;;;22.17;9.00;;;;;;;7.50;56.62;99474.00;5069146;28;20086;-70
2020/12/12 01:12:18;;;;;;;27.05;11.15;;;;;;;7.30;56.72;99468.41;5050736;28;20037;-70
2020/12/12 01:14:44;;;;;;;26.13;10.23;;;;;;;7.43;56.58;99475.84;5068718;28;20037;-70
2020/12/12 01:17:09;;;;;;;23.55;10.50;;;;;;;7.59;56.05;99478.09;5046946;28;20103;-69
2020/12/12 01:19:35;;;;;;;29.08;10.10;;;;;;;7.58;55.86;99482.41;5048618;28;20124;-70
2020/12/12 01:22:00;;;;;;;22.88;10.02;;;;;;;7.66;55.56;99483.09;5068737;28;20052;-69
2020/12/12 01:24:26;;;;;;;29.25;10.68;;;;;;;7.46;56.24;99490.38;5066914;28;20029;-70
2020/12/12 01:26:51;;;;;;;21.67;10.73;;;;;;;7.67;55.82;99491.66;5073706;28;20036;-70
2020/12/12 01:29:17;;;;;;;22.58;9.57;;;;;;;7.61;55.76;99497.78;5064975;28;20047;-69
2020/12/12 01:31:42;;;;;;;20.15;10.15;;;;;;;7.49;56.29;99488.56;5068213;28;20045;-70
2020/12/12 01:34:08;;;;;;;27.17;10.95;;;;;;;7.50;56.21;99494.56;5068471;28;20067;-71
2020/12/12 01:36:33;;;;;;;23.85;10.48;;;;;;;7.60;55.97;99490.94;5083687;28;20047;-70
2020/12/12 01:38:59;;;;;;;22.42;9.35;;;;;;;7.88;55.22;99490.31;5066207;28;20838;-70
2020/12/12 01:41:24;;;;;;;26.67;11.23;;;;;;;7.59;55.91;99486.69;5066982;28;20507;-69
2020/12/12 01:43:53;;;;;;;28.27;10.48;;;;;;;7.67;55.81;99494.22;5065566;28;20055;-70
2020/12/12 01:46:24;;;;;;;28.50;10.30;;;;;;;7.61;55.85;99490.06;5067274;28;20039;-70
2020/12/12 01:48:52;;;;;;;19.10;8.80;;;;;;;7.74;55.57;99497.50;5061709;28;20028;-70
2020/12/12 01:51:20;;;;;;;27.45;10.35;;;;;;;7.65;55.87;99496.81;5067247;28;20047;-70
2020/12/12 01:53:51;;;;;;;33.33;12.93;;;;;;;7.81;55.71;99496.50;5064737;28;20289;-70
2020/12/12 01:56:17;;;;;;;29.63;11.50;;;;;;;7.75;55.77;99502.63;5065947;28;20036;-70
2020/12/12 01:58:44;;;;;;;26.73;11.00;;;;;;;7.83;55.40;99502.44;5064899;28;20040;-69
2020/12/12 02:01:13;;;;;;;31.75;12.38;;;;;;;7.43;56.76;99498.97;5065536;28;20036;-70
2020/12/12 02:03:43;;;;;;;31.00;12.98;;;;;;;7.44;56.67;99503.25;5061271;28;20109;-70
2020/12/12 02:06:17;;;;;;;30.13;11.82;;;;;;;7.62;56.21;99499.47;5082427;28;20032;-70
2020/12/12 02:08:42;;;;;;;24.52;10.70;;;;;;;7.65;56.24;99499.38;5065972;28;20503;-70
2020/12/12 02:11:12;;;;;;;27.73;10.68;;;;;;;7.48;56.76;99491.19;5065923;28;20056;-70
2020/12/12 02:13:47;;;;;;;31.10;12.82;;;;;;;7.63;56.65;99511.41;5066041;28;20575;-70
2020/12/12 02:16:19;;;;;;;30.05;13.00;;;;;;;7.74;56.09;99505.22;5066414;28;20040;-69
2020/12/12 02:18:44;;;;;;;;;;;;;;;7.90;55.65;99514.28;5062687;28;20111;-69
2020/12/12 02:21:10;;;;;;;30.55;11.30;;;;;;;7.74;56.07;99515.50;5067114;28;20737;-69
2020/12/12 02:23:36;;;;;;;28.83;11.57;;;;;;;7.65;56.40;99509.66;5067347;28;20528;-69
2020/12/12 02:26:03;;;;;;;27.15;12.38;;;;;;;7.90;55.65;99512.59;5072306;28;20041;-70
2020/12/12 02:28:35;;;;;;;29.00;11.98;;;;;;;7.83;55.81;99502.44;5066570;28;20037;-70
2020/12/12 02:31:01;;;;;;;30.98;12.93;;;;;;;7.85;55.93;99510.97;5082694;28;20086;-69
2020/12/12 02:33:26;;;;;;;35.65;11.95;;;;;;;7.93;55.50;99506.53;5082872;28;20428;-69
2020/12/12 02:35:52;;;;;;;30.95;12.85;;;;;;;7.65;56.42;99508.84;5066545;28;20028;-69
2020/12/12 02:38:17;;;;;;;37.47;12.82;;;;;;;7.88;55.54;99506.63;5066681;28;20139;-70
2020/12/12 02:40:43;;;;;;;31.73;13.07;;;;;;;7.77;56.34;99508.59;5066495;28;20139;-70
2020/12/12 02:43:13;;;;;;;33.33;12.45;;;;;;;7.72;56.47;99499.25;5066442;28;20036;-70
2020/12/12 02:45:43;;;;;;;28.70;14.02;;;;;;;8.14;55.21;99507.75;5065753;28;20119;-70
2020/12/12 02:48:08;;;;;;;34.20;13.43;;;;;;;7.86;55.95;99498.09;5082817;28;20048;-69
2020/12/12 02:50:34;;;;;;;30.13;11.43;;;;;;;7.69;56.68;99497.59;5067340;28;20215;-69
2020/12/12 02:52:59;;;;;;;34.25;13.70;;;;;;;7.72;56.74;99506.97;5065513;28;20049;-69
2020/12/12 02:55:25;;;;;;;37.72;13.90;;;;;;;7.74;56.57;99500.06;5067527;28;20047;-70
2020/12/12 02:57:51;;;;;;;34.15;13.02;;;;;;;7.83;56.27;99502.44;5082268;28;20024;-69
2020/12/12 03:00:22;;;;;;;33.42;15.20;;;;;;;7.91;56.14;99505.72;5066133;28;20032;-70
2020/12/12 03:02:47;;;;;;;32.67;13.23;;;;;;;7.77;56.83;99505.16;5048293;28;20267;-70
2020/12/12 03:05:13;;;;;;;37.45;14.38;;;;;;;7.99;56.02;99503.81;5082935;28;20549;-70
2020/12/12 03:07:38;;;;;;;34.25;14.25;;;;;;;7.70;56.91;99501.84;5050212;28;20039;-70
2020/12/12 03:10:06;;;;;;;35.65;13.88;;;;;;;8.13;55.76;99511.22;5068793;28;20051;-70
2020/12/12 03:12:33;;;;;;;43.53;13.95;;;;;;;8.05;55.86;99508.81;5069376;28;20032;-70
2020/12/12 03:14:59;;;;;;;36.83;15.82;;;;;;;8.28;55.22;99504.84;5071885;28;20504;-69
2020/12/12 03:17:25;;;;;;;40.65;15.50;;;;;;;8.03;56.12;99502.84;5070145;28;20044;-70
2020/12/12 03:19:51;;;;;;;34.17;13.98;;;;;;;7.93;56.32;99509.09;5070954;28;20047;-70
2020/12/12 03:22:16;;;;;;;34.53;13.70;;;;;;;7.92;56.68;99506.53;5064087;28;20040;-69
2020/12/12 03:24:42;;;;;;;34.72;14.90;;;;;;;8.13;55.87;99518.06;5072965;28;20021;-69
2020/12/12 03:27:08;;;;;;;44.95;16.05;;;;;;;8.30;55.29;99510.81;5071701;28;20048;-70
2020/12/12 03:29:37;;;;;;;35.05;13.98;;;;;;;8.42;55.04;99513.16;5071071;28;20374;-70
2020/12/12 03:32:05;;;;;;;48.17;15.18;;;;;;;8.19;55.96;99520.53;5067312;28;20033;-70
2020/12/12 03:34:30;;;;;;;36.22;14.38;;;;;;;8.31;55.58;99509.97;5070133;28;20040;-70
2020/12/12 03:36:56;;;;;;;39.40;15.80;;;;;;;8.44;55.25;99516.53;5071752;28;20047;-70
2020/12/12 03:39:21;;;;;;;37.67;14.55;;;;;;;8.17;55.89;99517.13;5066216;28;20086;-70
2020/12/12 03:41:47;;;;;;;36.67;16.95;;;;;;;8.20;55.97;99517.91;5071797;28;20500;-69
2020/12/12 03:44:12;;;;;;;40.97;15.23;;;;;;;8.39;55.61;99520.91;5064481;28;20480;-71
2020/12/12 03:46:38;;;;;;;43.63;16.30;;;;;;;8.31;55.66;99515.09;5070833;28;20119;-70
2020/12/12 03:49:03;;;;;;;43.03;15.40;;;;;;;8.22;56.10;99521.31;5071954;28;20434;-70
2020/12/12 03:51:29;;;;;;;42.55;16.95;;;;;;;8.26;56.14;99517.78;5070667;28;20036;-72
2020/12/12 03:53:54;;;;;;;38.50;16.48;;;;;;;8.26;55.97;99512.63;5068512;28;20106;-72
2020/12/12 03:56:20;;;;;;;46.40;16.08;;;;;;;8.09;56.61;99522.47;5070229;28;20056;-69
2020/12/12 03:58:45;;;;;;;40.95;16.35;;;;;;;8.25;56.22;99517.81;5071085;28;20319;-69
2020/12/12 04:01:11;;;;;;;42.42;17.40;;;;;;;8.06;56.66;99513.09;5061162;28;20199;-70
2020/12/12 04:03:36;;;;;;;40.42;16.23;;;;;;;8.01;57.12;99519.22;5071110;28;20085;-72
2020/12/12 04:06:02;;;;;;;44.75;15.82;;;;;;;8.08;56.85;99523.34;5068462;28;20028;-70
2020/12/12 04:08:27;;;;;;;44.75;16.15;;;;;;;8.04;56.84;99520.00;5071563;28;20102;-69
2020/12/12 04:10:53;;;;;;;42.45;15.57;;;;;;;8.07;56.70;99525.06;5069549;28;20123;-70
2020/12/12 04:13:18;;;;;;;47.90;16.60;;;;;;;8.05;56.56;99520.84;5072598;28;20043;-70
2020/12/12 04:15:44;;;;;;;39.78;15.95;;;;;;;8.07;56.70;99527.63;5070075;28;20181;-70
2020/12/12 04:18:09;;;;;;;35.17;15.15;;;;;;;8.07;56.80;99534.53;5086278;28;20120;-70
2020/12/12 04:20:35;;;;;;;45.28;15.38;;;;;;;7.98;57.06;99535.56;5062561;28;20046;-69
2020/12/12 04:23:00;;;;;;;46.67;17.38;;;;;;;8.25;56.56;99533.25;5072031;28;20028;-70
2020/12/12 04:25:26;;;;;;;46.30;18.00;;;;;;;8.00;57.11;99528.66;5087608;28;20119;-69
2020/12/12 04:27:51;;;;;;;36.45;13.98;;;;;;;8.11;57.03;99534.41;5070266;28;20518;-70
2020/12/12 04:30:17;;;;;;;40.95;13.77;;;;;;;7.92;57.63;99527.97;5071043;28;20040;-70
2020/12/12 04:32:42;;;;;;;44.38;16.17;;;;;;;7.95;57.38;99522.78;5085783;28;20044;-70
2020/12/12 04:35:08;;;;;;;38.55;17.08;;;;;;;7.94;57.49;99531.34;5071297;28;21052;-70
2020/12/12 04:37:33;;;;;;;43.83;16.15;;;;;;;8.05;57.23;99534.53;5064996;28;20033;-70
2020/12/12 04:39:59;;;;;;;46.80;15.57;;;;;;;7.93;57.51;99539.97;5069177;28;20479;-69
2020/12/12 04:42:27;;;;;;;43.03;17.20;;;;;;;7.99;57.61;99533.84;5070458;28;20071;-70
2020/12/12 04:44:53;;;;;;;40.22;16.45;;;;;;;8.21;57.01;99549.66;5068818;28;20545;-69
2020/12/12 04:47:19;;;;;;;45.80;17.63;;;;;;;8.29;56.71;99540.88;5069480;28;20048;-69
2020/12/12 04:49:45;;;;;;;39.33;16.75;;;;;;;8.32;56.58;99542.53;5069122;28;20036;-69
2020/12/12 04:52:15;;;;;;;44.33;16.63;;;;;;;8.43;56.39;99550.88;5065601;28;20040;-72
2020/12/12 04:54:42;;;;;;;40.10;16.05;;;;;;;8.43;56.72;99545.72;5068713;28;20032;-69
2020/12/12 04:57:08;;;;;;;36.67;15.45;;;;;;;8.24;57.20;99545.28;5065495;28;20037;-70
2020/12/12 04:59:35;;;;;;;38.40;16.33;;;;;;;8.30;56.98;99547.72;5068032;28;20036;-70
2020/12/12 05:02:02;;;;;;;46.70;17.42;;;;;;;8.23;57.20;99542.75;5068494;28;20040;-70
2020/12/12 05:04:27;;;;;;;51.25;17.77;;;;;;;8.45;56.47;99538.81;5068822;28;20028;-70
2020/12/12 05:06:53;;;;;;;42.22;16.33;;;;;;;8.46;56.41;99544.81;5051046;28;20031;-70
2020/12/12 05:09:19;;;;;;;50.05;15.70;;;;;;;8.32;56.95;99547.69;5069429;28;20037;-71
2020/12/12 05:11:48;;;;;;;39.80;16.40;;;;;;;8.59;56.28;99545.38;5067937;28;20421;-70
2020/12/12 05:14:17;;;;;;;45.30;17.00;;;;;;;8.54;56.46;99549.78;5060731;28;20600;-70
2020/12/12 05:16:46;;;;;;;45.45;14.98;;;;;;;8.64;56.18;99548.66;5067607;28;20029;-70
2020/12/12 05:19:15;;;;;;;43.45;15.52;;;;;;;8.08;57.71;99546.50;5051790;28;20389;-70
2020/12/12 05:21:48;;;;;;;41.08;16.40;;;;;;;8.23;57.28;99547.88;5071436;28;20102;-70
2020/12/12 05:24:14;;;;;;;48.13;16.50;;;;;;;8.08;57.79;99544.78;5064836;28;20024;-71
2020/12/12 05:26:42;;;;;;;44.83;17.55;;;;;;;8.40;56.80;99545.81;5062625;28;20401;-71
2020/12/12 05:29:09;;;;;;;42.22;16.15;;;;;;;8.42;56.90;99549.19;5066418;28;20024;-71
2020/12/12 05:31:35;;;;;;;41.45;16.00;;;;;;;8.51;56.66;99553.28;5082858;28;20035;-70
2020/12/12 05:34:11;;;;;;;43.20;17.27;;;;;;;8.40;56.85;99562.97;5049392;28;20040;-70
2020/12/12 05:36:38;;;;;;;40.60;17.58;;;;;;;8.31;57.14;99561.44;5063625;28;20523;-69
2020/12/12 05:39:05;;;;;;;42.22;15.68;;;;;;;8.40;56.80;99556.09;5067008;28;20043;-71
2020/12/12 05:41:33;;;;;;;45.10;17.65;;;;;;;8.42;57.03;99564.66;5068459;28;20728;-70
2020/12/12 05:43:58;;;;;;;37.47;14.90;;;;;;;8.31;57.08;99557.13;5067079;28;20063;-71
2020/12/12 05:46:25;;;;;;;41.33;15.27;;;;;;;8.51;56.42;99555.88;5052702;28;20063;-70
2020/12/12 05:48:51;;;;;;;43.28;16.90;;;;;;;8.22;57.13;99553.94;5067026;28;20379;-71
2020/12/12 05:51:17;;;;;;;39.97;16.33;;;;;;;8.28;57.29;99561.50;5066419;28;20545;-71
2020/12/12 05:53:45;;;;;;;45.28;16.98;;;;;;;8.26;57.05;99564.13;5067319;28;20193;-70
2020/12/12 05:56:11;;;;;;;44.58;16.83;;;;;;;8.52;56.72;99560.97;5065795;28;20047;-71
2020/12/12 05:58:44;;;;;;;46.45;19.65;;;;;;;8.42;56.86;99567.22;5067889;28;20123;-71
2020/12/12 06:01:20;;;;;;;42.05;17.55;;;;;;;8.58;56.15;99569.44;5064333;28;20032;-70
2020/12/12 06:04:01;;;;;;;42.00;16.58;;;;;;;8.48;56.67;99568.78;5065057;28;20044;-70
2020/12/12 06:06:26;;;;;;;42.97;17.75;;;;;;;8.34;57.10;99561.34;5083472;28;20036;-71
2020/12/12 06:09:07;;;;;;;50.67;16.92;;;;;;;8.33;57.13;99564.81;5062401;28;20036;-70
2020/12/12 06:11:33;;;;;;;45.55;17.67;;;;;;;8.18;57.57;99560.88;5061083;28;20677;-71
2020/12/12 06:14:03;;;;;;;46.13;16.70;;;;;;;8.15;57.77;99560.94;5063714;28;20064;-71
2020/12/12 06:16:31;;;;;;;49.45;17.90;;;;;;;8.14;58.03;99568.69;5067633;28;20437;-71
2020/12/12 06:18:59;;;;;;;42.88;16.42;;;;;;;8.40;57.56;99575.84;5068052;28;20040;-70
2020/12/12 06:21:27;;;;;;;41.22;17.58;;;;;;;8.40;57.29;99575.84;5085226;28;20552;-71
2020/12/12 06:23:56;;;;;;;48.90;17.13;;;;;;;8.31;57.57;99575.16;5059900;28;20359;-71
2020/12/12 06:26:35;;;;;;;40.75;15.02;;;;;;;8.30;58.13;99580.31;5066419;28;20141;-70
2020/12/12 06:29:01;;;;;;;50.45;17.15;;;;;;;8.13;58.22;99582.41;5066980;28;20099;-70
2020/12/12 06:31:28;;;;;;;38.05;14.98;;;;;;;8.41;57.74;99588.69;5067484;28;20493;-71
2020/12/12 06:33:54;;;;;;;48.05;17.77;;;;;;;8.59;57.07;99592.56;5058273;28;20085;-71
2020/12/12 06:36:29;;;;;;;47.85;18.52;;;;;;;8.39;57.89;99585.25;5067278;28;20100;-71
2020/12/12 06:39:21;;;;;;;49.25;18.48;;;;;;;8.56;57.43;99584.91;5066308;28;20028;-71
2020/12/12 06:41:50;;;;;;;47.33;17.30;;;;;;;8.51;57.64;99586.75;5065280;28;20093;-71
2020/12/12 06:44:38;;;;;;;42.35;17.10;;;;;;;8.47;57.85;99588.56;5064100;28;20032;-71
2020/12/12 06:47:07;;;;;;;40.55;17.05;;;;;;;8.35;58.14;99596.53;5081289;28;20033;-71
2020/12/12 06:49:33;;;;;;;42.00;17.33;;;;;;;8.16;58.63;99597.81;5064316;28;20036;-71
2020/12/12 06:51:59;;;;;;;44.33;16.85;;;;;;;8.14;58.97;99599.56;5064720;28;20075;-70
2020/12/12 06:54:25;;;;;;;45.97;18.40;;;;;;;8.04;59.04;99598.94;5065799;28;20087;-71
2020/12/12 06:56:51;;;;;;;49.33;19.35;;;;;;;8.15;58.86;99606.41;5064829;28;20485;-70
2020/12/12 06:59:36;;;;;;;45.92;17.27;;;;;;;8.23;58.74;99612.22;5063923;28;22640;-71
2020/12/12 07:02:07;;;;;;;39.00;15.73;;;;;;;8.30;58.42;99616.38;5066102;28;20499;-70
2020/12/12 07:04:34;;;;;;;41.78;16.83;;;;;;;8.40;57.94;99622.19;5063514;28;20433;-70
2020/12/12 07:07:06;;;;;;;47.33;17.20;;;;;;;8.18;58.58;99624.38;5064373;28;20036;-71
2020/12/12 07:09:37;;;;;;;49.05;17.08;;;;;;;8.18;58.67;99625.22;5065624;28;20025;-71
2020/12/12 07:12:03;;;;;;;42.67;16.88;;;;;;;8.47;57.60;99626.34;5065573;28;20107;-71
2020/12/12 07:14:29;;;;;;;50.00;17.25;;;;;;;7.93;59.50;99626.59;5066522;28;20493;-71
2020/12/12 07:16:59;;;;;;;42.03;16.10;;;;;;;8.13;58.93;99628.75;5064158;28;20195;-70
2020/12/12 07:19:39;;;;;;;48.67;16.83;;;;;;;8.28;58.58;99634.44;5082499;28;20512;-72
2020/12/12 07:22:07;;;;;;;46.55;15.68;;;;;;;8.02;59.00;99642.69;5065611;28;20029;-70
2020/12/12 07:24:33;;;;;;;42.50;17.23;;;;;;;7.93;59.24;99635.16;5063775;28;20056;-70
2020/12/12 07:26:59;;;;;;;43.55;16.00;;;;;;;8.05;58.86;99639.22;5065190;28;20063;-70
2020/12/12 07:29:25;;;;;;;44.25;16.80;;;;;;;8.19;58.72;99641.50;5063615;28;20028;-70
2020/12/12 07:31:51;;;;;;;47.10;16.98;;;;;;;8.29;58.03;99653.31;5062663;28;20068;-70
2020/12/12 07:34:22;;;;;;;53.25;18.23;;;;;;;8.49;57.76;99643.44;5064765;28;20079;-70
2020/12/12 07:37:02;;;;;;;46.75;18.30;;;;;;;8.59;57.49;99658.69;5064181;28;20033;-72
2020/12/12 07:39:36;;;;;;;45.88;16.75;;;;;;;8.35;58.05;99655.75;5080382;28;20082;-72
2020/12/12 07:42:03;;;;;;;45.22;16.95;;;;;;;8.20;58.40;99651.75;5046659;28;20024;-70
2020/12/12 07:44:33;;;;;;;;;;;;;;;8.00;59.01;99664.19;5065460;28;20024;-69
2020/12/12 07:47:07;;;;;;;47.42;16.77;;;;;;;8.11;58.66;99663.09;5065393;28;20440;-70
2020/12/12 07:49:35;;;;;;;49.45;16.17;;;;;;;8.20;58.56;99668.94;5064071;28;20040;-70
2020/12/12 07:52:10;;;;;;;45.47;16.92;;;;;;;8.18;58.34;99675.84;5064485;28;20039;-70
2020/12/12 07:54:57;;;;;;;50.72;17.20;;;;;;;8.04;58.77;99669.25;5064682;28;20033;-70
2020/12/12 07:57:24;;;;;;;47.53;17.77;;;;;;;7.97;59.13;99672.81;5069896;28;20050;-70
2020/12/12 07:59:49;;;;;;;47.38;18.05;;;;;;;8.22;58.72;99682.63;5066662;28;20025;-69
2020/12/12 08:02:16;;;;;;;56.13;17.98;;;;;;;8.10;58.67;99692.28;5069003;28;20171;-69
2020/12/12 08:04:41;;;;;;;53.33;18.33;;;;;;;8.34;58.10;99690.09;5069307;28;20032;-69
2020/12/12 08:07:13;;;;;;;50.20;17.70;;;;;;;8.29;58.19;99692.75;5068316;28;20032;-70
2020/12/12 08:09:46;;;;;;;45.42;17.48;;;;;;;8.13;58.63;99698.22;5067961;28;20032;-71
2020/12/12 08:12:35;;;;;;;50.40;17.10;;;;;;;8.18;58.26;99699.00;5070105;28;20051;-69
2020/12/12 08:15:13;;;;;;;49.38;17.38;;;;;;;8.08;58.19;99701.75;5066872;28;20037;-69
2020/12/12 08:17:39;;;;;;;60.40;18.20;;;;;;;8.23;57.92;99708.31;5065760;28;20047;-69
2020/12/12 08:20:04;;;;;;;52.75;20.23;;;;;;;8.15;58.22;99717.94;5074189;28;20040;-69
2020/12/12 08:22:31;;;;;;;46.17;17.15;;;;;;;8.32;57.54;99721.00;5066370;28;20444;-70
2020/12/12 08:24:58;;;;;;;53.30;16.88;;;;;;;7.78;59.12;99725.50;5067294;28;20024;-70
2020/12/12 08:27:26;;;;;;;53.63;18.67;;;;;;;7.85;58.99;99721.91;5066102;28;20032;-70
2020/12/12 08:29:53;;;;;;;43.53;16.70;;;;;;;8.01;58.48;99722.47;5066922;28;20113;-70
2020/12/12 08:32:40;;;;;;;54.65;19.67;;;;;;;7.86;59.25;99723.63;5066433;28;20107;-70
2020/12/12 08:35:25;;;;;;;51.50;19.63;;;;;;;7.79;59.48;99730.63;5068804;28;20046;-70
2020/12/12 08:38:04;;;;;;;53.22;19.88;;;;;;;7.75;59.63;99731.53;5065743;28;20048;-68
2020/12/12 08:40:34;;;;;;;60.63;20.33;;;;;;;8.06;58.85;99731.81;5049354;28;20048;-70
2020/12/12 08:43:07;;;;;;;54.78;17.25;;;;;;;8.42;57.71;99737.16;5069384;28;20051;-71
2020/12/12 08:45:36;;;;;;;60.03;15.60;;;;;;;8.08;58.57;99730.06;5085496;28;20071;-70
2020/12/12 08:48:08;;;;;;;50.72;17.85;;;;;;;7.83;59.07;99737.38;5071622;28;20036;-70
2020/12/12 08:50:53;;;;;;;35.55;13.45;;;;;;;8.36;57.58;99739.81;5070649;28;20090;-70
2020/12/12 08:53:23;;;;;;;52.83;19.13;;;;;;;8.15;58.06;99740.22;5070364;28;20115;-72
2020/12/12 08:56:15;;;;;;;59.28;18.25;;;;;;;8.30;57.59;99745.09;5064723;28;20048;-71
2020/12/12 08:58:55;;;;;;;53.47;20.33;;;;;;;8.46;57.49;99743.94;5067897;28;20056;-72
2020/12/12 09:01:38;;;;;;;61.08;20.15;;;;;;;8.32;57.95;99748.47;5070120;28;20056;-70
2020/12/12 09:04:10;;;;;;;56.90;19.85;;;;;;;8.44;57.51;99756.00;5053651;28;20526;-69
2020/12/12 09:06:41;;;;;;;50.35;19.15;;;;;;;8.36;57.89;99755.28;5084594;28;20041;-70
2020/12/12 09:09:14;;;;;;;49.10;14.00;;;;;;;8.13;58.32;99757.41;5067422;28;20086;-71
2020/12/12 09:11:45;;;;;;;53.53;18.92;;;;;;;8.06;58.62;99752.41;5050245;28;20040;-70
2020/12/12 09:14:11;;;;;;;44.50;15.60;;;;;;;7.83;59.45;99760.53;5065834;28;20048;-70
2020/12/12 09:16:38;;;;;;;59.13;18.48;;;;;;;8.04;58.72;99758.47;5068193;28;20036;-70
2020/12/12 09:19:05;;;;;;;60.97;18.98;;;;;;;8.28;58.30;99768.31;5070799;28;20474;-69
2020/12/12 09:21:34;;;;;;;56.42;19.52;;;;;;;7.98;58.88;99769.72;5066059;28;20040;-70
2020/12/12 09:24:00;;;;;;;60.00;18.27;;;;;;;7.99;59.09;99771.41;5067999;28;20032;-70
2020/12/12 09:26:26;;;;;;;57.85;18.15;;;;;;;7.85;59.70;99776.78;5066329;28;20521;-71
2020/12/12 09:28:51;;;;;;;45.22;17.17;;;;;;;7.78;59.67;99771.78;5066727;28;20046;-69
2020/12/12 09:31:18;;;;;;;52.67;18.27;;;;;;;7.89;59.68;99775.03;5067427;28;20044;-69
2020/12/12 09:33:44;;;;;;;65.53;19.77;;;;;;;8.20;58.89;99777.03;5066278;28;20042;-68
2020/12/12 09:36:11;;;;;;;59.92;20.67;;;;;;;8.14;59.16;99782.31;5066815;28;20040;-70
2020/12/12 09:38:36;;;;;;;47.65;17.63;;;;;;;8.20;58.81;99775.31;5067771;28;20047;-70
2020/12/12 09:41:02;;;;;;;69.70;19.40;;;;;;;7.97;59.32;99777.44;5062529;28;20115;-71
2020/12/12 09:43:28;;;;;;;53.22;17.92;;;;;;;8.08;59.13;99783.25;5049823;28;20384;-70
2020/12/12 09:45:54;;;;;;;52.75;20.52;;;;;;;8.20;58.94;99777.03;5066840;28;20024;-70
2020/12/12 09:48:19;;;;;;;49.45;16.98;;;;;;;8.11;59.05;99778.91;5067389;28;20047;-70
2020/12/12 09:50:45;;;;;;;59.90;18.77;;;;;;;8.04;58.98;99785.03;5064790;28;20033;-70
2020/12/12 09:53:11;;;;;;;54.55;18.92;;;;;;;8.20;58.58;99785.59;5065575;28;20505;-69
2020/12/12 09:55:40;;;;;;;55.45;19.38;;;;;;;8.16;58.58;99793.41;5067621;28;20086;-69
2020/12/12 09:58:07;;;;;;;55.13;20.20;;;;;;;8.48;57.60;99788.53;5069328;28;20098;-71
2020/12/12 10:00:34;;;;;;;66.22;20.60;;;;;;;8.55;57.16;99799.56;5066496;28;20057;-70
2020/12/12 10:02:59;;;;;;;69.50;21.85;;;;;;;8.61;57.00;99796.00;5062900;28;20048;-70
2020/12/12 10:05:25;;;;;;;58.90;19.75;;;;;;;8.37;57.59;99805.88;5069236;28;20029;-70
2020/12/12 10:07:54;;;;;;;51.85;18.63;;;;;;;8.67;57.17;99801.03;5083585;28;20021;-70
2020/12/12 10:10:20;;;;;;;58.45;20.60;;;;;;;8.59;57.22;99802.91;5070656;28;20545;-70
2020/12/12 10:12:45;;;;;;;56.88;20.38;;;;;;;8.49;57.70;99802.25;5063839;28;20094;-70
2020/12/12 10:15:11;;;;;;;63.35;19.73;;;;;;;8.49;57.53;99802.25;5071209;28;20043;-70
2020/12/12 10:17:36;;;;;;;65.47;19.98;;;;;;;8.40;57.53;99805.00;5056548;28;20085;-69
2020/12/12 10:20:02;;;;;;;62.58;20.13;;;;;;;8.42;57.53;99805.84;5070078;28;20395;-70
2020/12/12 10:22:28;;;;;;;52.80;18.38;;;;;;;8.31;57.73;99809.41;5069935;28;20616;-70
2020/12/12 10:24:53;;;;;;;54.63;21.55;;;;;;;8.44;57.21;99816.94;5067571;28;20033;-70
2020/12/12 10:27:19;;;;;;;59.38;19.77;;;;;;;8.52;57.06;99813.34;5067733;28;20032;-70
2020/12/12 10:29:44;;;;;;;53.28;18.15;;;;;;;8.48;57.16;99806.56;5068102;28;20032;-69
2020/12/12 10:32:10;;;;;;;69.30;20.45;;;;;;;8.11;58.20;99807.22;5067866;28;20024;-69
2020/12/12 10:34:35;;;;;;;55.70;20.17;;;;;;;8.27;57.74;99806.94;5068875;28;20036;-72
2020/12/12 10:37:02;;;;;;;60.22;20.27;;;;;;;8.49;57.44;99810.00;5067560;28;20086;-70
2020/12/12 10:39:31;;;;;;;55.00;19.52;;;;;;;8.81;56.65;99806.75;5068778;28;20047;-69
2020/12/12 10:42:00;;;;;;;53.40;20.85;;;;;;;8.41;57.42;99807.53;5068956;28;20100;-71
2020/12/12 10:44:26;;;;;;;57.92;19.55;;;;;;;8.52;57.42;99803.03;5067126;28;20033;-70
2020/12/12 10:46:52;;;;;;;60.30;21.13;;;;;;;8.77;56.74;99802.53;5066437;28;20028;-69
2020/12/12 10:49:18;;;;;;;58.35;20.73;;;;;;;8.74;56.26;99800.03;5069201;28;20044;-70
2020/12/12 10:51:52;;;;;;;66.00;19.98;;;;;;;8.69;56.72;99800.13;5066776;28;20036;-69
2020/12/12 10:54:18;;;;;;;44.53;18.52;;;;;;;8.23;58.10;99802.72;5064517;28;20085;-70
2020/12/12 10:56:45;;;;;;;49.25;18.42;;;;;;;8.54;57.45;99803.00;5083372;28;20036;-68
2020/12/12 10:59:11;;;;;;;56.15;20.33;;;;;;;8.51;57.58;99803.94;5068450;28;20036;-71
2020/12/12 11:01:37;;;;;;;64.70;19.58;;;;;;;8.39;57.71;99805.84;5066990;28;20040;-70
2020/12/12 11:04:03;;;;;;;62.00;19.45;;;;;;;8.62;57.26;99818.34;5067410;28;20032;-70
2020/12/12 11:06:29;;;;;;;54.65;17.50;;;;;;;8.55;57.28;99811.59;5069136;28;20032;-70
2020/12/12 11:08:55;;;;;;;61.35;20.90;;;;;;;8.41;57.56;99820.41;5067867;28;20070;-69
2020/12/12 11:11:21;;;;;;;64.13;20.80;;;;;;;8.61;57.27;99820.03;5068788;28;20043;-70
2020/12/12 11:13:46;;;;;;;47.20;18.85;;;;;;;8.48;57.34;99821.16;5069180;28;20672;-69
2020/12/12 11:16:20;;;;;;;60.35;19.48;;;;;;;8.62;57.24;99821.75;5090693;28;20056;-70
2020/12/12 11:18:53;;;;;;;60.28;21.13;;;;;;;8.48;57.44;99829.75;5083587;28;20055;-69
2020/12/12 11:21:23;;;;;;;59.65;20.60;;;;;;;8.58;57.37;99827.00;5069002;28;20059;-69
2020/12/12 11:23:48;;;;;;;55.95;19.95;;;;;;;8.45;57.24;99832.38;5051259;28;20684;-69
2020/12/12 11:26:15;;;;;;;54.83;20.60;;;;;;;8.67;57.12;99831.97;5068920;28;20033;-69
2020/12/12 11:28:43;;;;;;;63.78;21.35;;;;;;;8.71;56.97;99826.72;5067710;28;20401;-70
2020/12/12 11:31:08;;;;;;;57.88;19.98;;;;;;;8.82;56.70;99836.81;5088187;28;20033;-69